createdAt,value
2018-02-24T00:04:11.257Z,-2.50
2018-02-24T00:14:12.816Z,-2.50
2018-02-24T00:24:14.444Z,-2.60
2018-02-24T00:34:16.292Z,-2.70
2018-02-24T00:44:18.669Z,-2.60
2018-02-24T00:54:20.351Z,-2.70
2018-02-24T01:04:21.859Z,-2.70
2018-02-24T01:14:23.420Z,-2.90
2018-02-24T01:24:25.668Z,-3.00
2018-02-24T01:34:27.198Z,-3.00
2018-02-24T01:44:28.843Z,-3.00
2018-02-24T01:54:30.408Z,-3.10
2018-02-24T02:04:31.940Z,-3.20
2018-02-24T02:14:34.303Z,-3.40
2018-02-24T02:24:36.112Z,-3.40
2018-02-24T02:34:37.599Z,-3.40
2018-02-24T02:44:39.145Z,-3.50
2018-02-24T02:54:41.380Z,-3.50
2018-02-24T03:04:43.121Z,-3.50
2018-02-24T03:14:44.641Z,-3.40
2018-02-24T03:24:46.197Z,-3.50
2018-02-24T03:34:47.911Z,-3.60
2018-02-24T03:44:49.352Z,-3.70
2018-02-24T03:54:50.880Z,-3.70
2018-02-24T04:04:52.429Z,-3.90
2018-02-24T04:14:53.985Z,-3.80
2018-02-24T04:24:55.580Z,-3.90
2018-02-24T04:34:57.923Z,-3.90
2018-02-24T04:44:59.405Z,-4.00
2018-02-24T04:55:00.948Z,-4.00
2018-02-24T05:05:02.464Z,-4.10
2018-02-24T05:15:04.094Z,-4.30
2018-02-24T05:25:05.741Z,-4.30
2018-02-24T05:35:07.305Z,-4.30
2018-02-24T05:45:08.838Z,-4.40
2018-02-24T05:55:10.360Z,-4.50
2018-02-24T06:05:11.916Z,-4.40
2018-02-24T06:15:13.558Z,-4.40
2018-02-24T06:25:15.100Z,-4.30
2018-02-24T06:35:16.620Z,-4.30
2018-02-24T06:45:18.150Z,-4.20
2018-02-24T06:55:19.731Z,-4.10
2018-02-24T07:05:21.491Z,-3.80
2018-02-24T07:15:23.047Z,-3.60
2018-02-24T07:25:24.595Z,-2.60
2018-02-24T07:35:26.143Z,-2.20
2018-02-24T07:45:27.722Z,-2.00
2018-02-24T07:55:29.217Z,-1.60
2018-02-24T08:05:30.832Z,-1.50
2018-02-24T08:15:32.557Z,-1.10
2018-02-24T08:25:34.237Z,-1.00
2018-02-24T08:35:35.782Z,-0.70
2018-02-24T08:45:38.033Z,0.00
2018-02-24T08:55:46.762Z,-0.10
2018-02-24T09:05:49.290Z,0.20
2018-02-24T09:15:51.679Z,0.40
2018-02-24T09:25:53.216Z,0.30
2018-02-24T09:35:54.959Z,0.70
2018-02-24T09:45:56.838Z,0.50
2018-02-24T09:55:58.430Z,0.80
2018-02-24T10:06:00.034Z,1.10
2018-02-24T10:16:01.603Z,1.60
2018-02-24T10:26:03.191Z,1.80
2018-02-24T10:36:04.736Z,2.30
2018-02-24T10:46:06.308Z,2.40
2018-02-24T10:56:08.586Z,3.10
2018-02-24T11:06:10.353Z,3.00
2018-02-24T11:16:11.923Z,3.40
2018-02-24T11:26:14.317Z,4.10
2018-02-24T11:36:16.118Z,4.00
2018-02-24T11:46:17.880Z,4.00
2018-02-24T11:56:19.584Z,4.20
2018-02-24T12:06:21.093Z,4.40
2018-02-24T12:16:22.706Z,4.30
2018-02-24T12:26:24.339Z,4.50
2018-02-24T12:36:26.030Z,4.60
2018-02-24T12:46:27.573Z,4.30
2018-02-24T12:56:29.912Z,4.40
2018-02-24T13:06:31.662Z,4.40
2018-02-24T13:16:34.513Z,4.60
2018-02-24T13:26:38.097Z,4.10
2018-02-24T13:36:39.804Z,4.00
2018-02-24T13:46:41.540Z,4.10
2018-02-24T13:56:43.260Z,4.00
2018-02-24T14:06:44.857Z,3.70
2018-02-24T14:16:47.992Z,3.70
2018-02-24T14:26:49.636Z,3.80
2018-02-24T14:36:53.305Z,3.40
2018-02-24T14:46:55.770Z,3.30
2018-02-24T14:56:58.486Z,3.10
2018-02-24T15:07:00.262Z,3.00
2018-02-24T15:17:01.864Z,2.70
2018-02-24T15:27:03.480Z,2.40
2018-02-24T15:37:05.105Z,2.20
2018-02-24T15:47:07.466Z,1.80
2018-02-24T15:57:09.805Z,1.70
2018-02-24T16:07:13.766Z,1.50
2018-02-24T16:17:16.822Z,1.40
2018-02-24T16:27:19.439Z,1.30
2018-02-24T16:37:21.186Z,1.10
2018-02-24T16:47:22.827Z,1.00
2018-02-24T16:57:24.444Z,0.80
2018-02-24T17:07:26.131Z,0.80
2018-02-24T17:17:28.405Z,0.70
2018-02-24T17:27:30.573Z,0.50
2018-02-24T17:37:32.474Z,0.50
2018-02-24T17:47:35.332Z,0.40
2018-02-24T17:57:39.295Z,0.30
2018-02-24T18:07:41.668Z,0.20
2018-02-24T18:17:43.351Z,0.20
2018-02-24T18:27:44.908Z,0.10
2018-02-24T18:37:47.260Z,0.00
2018-02-24T18:47:48.733Z,0.00
2018-02-24T18:57:51.043Z,0.00
2018-02-24T19:07:52.641Z,-0.10
2018-02-24T19:17:54.248Z,0.00
2018-02-24T19:27:55.751Z,-0.10
2018-02-24T19:37:58.154Z,-0.30
2018-02-24T19:48:00.010Z,-0.40
2018-02-24T19:58:01.764Z,-0.40
2018-02-24T20:08:03.543Z,-0.40
2018-02-24T20:18:05.990Z,-0.50
2018-02-24T20:28:08.993Z,-0.70
2018-02-24T20:38:11.617Z,-0.70
2018-02-24T20:48:14.213Z,-0.90
2018-02-24T20:58:16.247Z,-0.80
2018-02-24T21:08:21.273Z,-1.00
2018-02-24T21:18:23.947Z,-1.10
2018-02-24T21:28:26.349Z,-1.20
2018-02-24T21:38:27.946Z,-1.30
2018-02-24T21:48:30.225Z,-1.10
2018-02-24T21:58:32.501Z,-1.10
2018-02-24T22:08:35.393Z,-1.20
2018-02-24T22:18:38.877Z,-1.30
2018-02-24T22:28:40.426Z,-1.40
2018-02-24T22:38:42.069Z,-1.40
2018-02-24T22:48:49.882Z,-1.50
2018-02-24T22:58:52.169Z,-1.70
2018-02-24T23:08:53.858Z,-1.80
2018-02-24T23:18:58.541Z,-1.80
2018-02-24T23:29:00.950Z,-1.90
2018-02-24T23:39:03.697Z,-2.00
2018-02-24T23:49:06.049Z,-2.10
2018-02-24T23:59:09.702Z,-2.20
